sensor_id;sensor_type;location;lat;lon;timestamp;P1;durP1;ratioP1;P2;durP2;ratioP2
75169;SDS011;63749;49.186;9.222;2023-02-02T00:01:40;12.43;;;2.70;;
75169;SDS011;63749;49.186;9.222;2023-02-02T00:04:06;11.70;;;2.83;;
75169;SDS011;63749;49.186;9.222;2023-02-02T00:06:31;18.50;;;3.80;;
75169;SDS011;63749;49.186;9.222;2023-02-02T00:09:00;13.48;;;3.60;;
75169;SDS011;63749;49.186;9.222;2023-02-02T00:11:26;14.38;;;3.08;;
75169;SDS011;63749;49.186;9.222;2023-02-02T00:13:52;13.10;;;2.97;;
75169;SDS011;63749;49.186;9.222;2023-02-02T00:18:59;11.07;;;2.85;;
75169;SDS011;63749;49.186;9.222;2023-02-02T00:21:26;14.77;;;2.60;;
75169;SDS011;63749;49.186;9.222;2023-02-02T00:23:52;13.00;;;3.40;;
75169;SDS011;63749;49.186;9.222;2023-02-02T00:26:18;14.23;;;2.83;;
75169;SDS011;63749;49.186;9.222;2023-02-02T00:28:44;8.80;;;2.47;;
75169;SDS011;63749;49.186;9.222;2023-02-02T00:31:09;15.93;;;3.17;;
75169;SDS011;63749;49.186;9.222;2023-02-02T00:33:35;11.33;;;2.53;;
75169;SDS011;63749;49.186;9.222;2023-02-02T00:36:00;11.43;;;2.63;;
75169;SDS011;63749;49.186;9.222;2023-02-02T00:38:26;14.60;;;3.15;;
75169;SDS011;63749;49.186;9.222;2023-02-02T00:40:51;13.10;;;3.33;;
75169;SDS011;63749;49.186;9.222;2023-02-02T00:43:16;7.57;;;2.50;;
75169;SDS011;63749;49.186;9.222;2023-02-02T00:45:42;11.20;;;3.00;;
75169;SDS011;63749;49.186;9.222;2023-02-02T00:48:07;14.53;;;3.20;;
75169;SDS011;63749;49.186;9.222;2023-02-02T00:50:34;14.15;;;3.28;;
75169;SDS011;63749;49.186;9.222;2023-02-02T00:53:00;8.70;;;2.67;;
75169;SDS011;63749;49.186;9.222;2023-02-02T00:55:26;12.23;;;3.40;;
75169;SDS011;63749;49.186;9.222;2023-02-02T00:57:51;10.77;;;3.00;;
75169;SDS011;63749;49.186;9.222;2023-02-02T01:00:20;10.77;;;3.50;;
75169;SDS011;63749;49.186;9.222;2023-02-02T01:02:48;14.07;;;3.50;;
75169;SDS011;63749;49.186;9.222;2023-02-02T01:05:15;15.45;;;3.50;;
75169;SDS011;63749;49.186;9.222;2023-02-02T01:07:40;12.70;;;3.73;;
75169;SDS011;63749;49.186;9.222;2023-02-02T01:10:07;20.47;;;4.20;;
75169;SDS011;63749;49.186;9.222;2023-02-02T01:12:36;14.57;;;3.88;;
75169;SDS011;63749;49.186;9.222;2023-02-02T01:15:02;10.67;;;3.60;;
75169;SDS011;63749;49.186;9.222;2023-02-02T01:17:27;14.57;;;3.72;;
75169;SDS011;63749;49.186;9.222;2023-02-02T01:19:53;16.23;;;3.90;;
75169;SDS011;63749;49.186;9.222;2023-02-02T01:22:18;12.73;;;3.90;;
75169;SDS011;63749;49.186;9.222;2023-02-02T01:24:45;14.30;;;3.63;;
75169;SDS011;63749;49.186;9.222;2023-02-02T01:27:10;11.40;;;4.03;;
75169;SDS011;63749;49.186;9.222;2023-02-02T01:29:35;16.60;;;4.37;;
75169;SDS011;63749;49.186;9.222;2023-02-02T01:32:01;16.20;;;4.20;;
75169;SDS011;63749;49.186;9.222;2023-02-02T01:34:26;21.30;;;4.53;;
75169;SDS011;63749;49.186;9.222;2023-02-02T01:36:52;20.60;;;5.40;;
75169;SDS011;63749;49.186;9.222;2023-02-02T01:39:17;16.43;;;4.67;;
75169;SDS011;63749;49.186;9.222;2023-02-02T01:41:43;16.92;;;4.20;;
75169;SDS011;63749;49.186;9.222;2023-02-02T01:47:11;12.35;;;3.90;;
75169;SDS011;63749;49.186;9.222;2023-02-02T01:49:37;15.87;;;4.00;;
75169;SDS011;63749;49.186;9.222;2023-02-02T01:52:04;20.05;;;4.55;;
75169;SDS011;63749;49.186;9.222;2023-02-02T01:57:01;12.98;;;3.60;;
75169;SDS011;63749;49.186;9.222;2023-02-02T01:59:30;14.68;;;4.82;;
75169;SDS011;63749;49.186;9.222;2023-02-02T02:01:57;21.10;;;4.30;;
75169;SDS011;63749;49.186;9.222;2023-02-02T02:04:23;19.43;;;4.50;;
75169;SDS011;63749;49.186;9.222;2023-02-02T02:06:50;13.68;;;3.97;;
75169;SDS011;63749;49.186;9.222;2023-02-02T02:09:17;18.83;;;4.00;;
75169;SDS011;63749;49.186;9.222;2023-02-02T02:11:42;21.27;;;3.73;;
75169;SDS011;63749;49.186;9.222;2023-02-02T02:14:08;16.73;;;3.90;;
75169;SDS011;63749;49.186;9.222;2023-02-02T02:34:46;18.98;;;4.18;;
75169;SDS011;63749;49.186;9.222;2023-02-02T02:40:26;19.90;;;4.37;;
75169;SDS011;63749;49.186;9.222;2023-02-02T02:42:58;17.60;;;4.05;;
75169;SDS011;63749;49.186;9.222;2023-02-02T02:45:27;22.98;;;4.88;;
75169;SDS011;63749;49.186;9.222;2023-02-02T02:47:53;16.88;;;4.00;;
75169;SDS011;63749;49.186;9.222;2023-02-02T02:50:19;11.27;;;3.70;;
75169;SDS011;63749;49.186;9.222;2023-02-02T02:52:46;18.27;;;3.65;;
75169;SDS011;63749;49.186;9.222;2023-02-02T02:55:13;15.93;;;3.72;;
75169;SDS011;63749;49.186;9.222;2023-02-02T02:58:00;17.42;;;4.25;;
75169;SDS011;63749;49.186;9.222;2023-02-02T03:00:38;20.33;;;4.17;;
75169;SDS011;63749;49.186;9.222;2023-02-02T03:03:32;14.07;;;3.90;;
75169;SDS011;63749;49.186;9.222;2023-02-02T03:08:34;20.08;;;4.30;;
75169;SDS011;63749;49.186;9.222;2023-02-02T03:11:13;14.18;;;3.60;;
75169;SDS011;63749;49.186;9.222;2023-02-02T03:13:40;17.63;;;4.03;;
75169;SDS011;63749;49.186;9.222;2023-02-02T03:16:07;16.80;;;3.55;;
75169;SDS011;63749;49.186;9.222;2023-02-02T03:18:33;9.75;;;3.20;;
75169;SDS011;63749;49.186;9.222;2023-02-02T03:20:59;13.43;;;3.37;;
75169;SDS011;63749;49.186;9.222;2023-02-02T03:23:24;13.73;;;3.77;;
75169;SDS011;63749;49.186;9.222;2023-02-02T03:25:50;17.13;;;4.70;;
75169;SDS011;63749;49.186;9.222;2023-02-02T03:28:16;19.25;;;4.28;;
75169;SDS011;63749;49.186;9.222;2023-02-02T03:30:42;25.00;;;3.97;;
75169;SDS011;63749;49.186;9.222;2023-02-02T03:33:09;14.35;;;3.72;;
75169;SDS011;63749;49.186;9.222;2023-02-02T03:35:35;16.77;;;4.00;;
75169;SDS011;63749;49.186;9.222;2023-02-02T03:38:01;16.83;;;4.73;;
75169;SDS011;63749;49.186;9.222;2023-02-02T03:40:26;13.37;;;3.77;;
75169;SDS011;63749;49.186;9.222;2023-02-02T03:42:53;19.95;;;3.92;;
75169;SDS011;63749;49.186;9.222;2023-02-02T03:45:18;11.73;;;3.77;;
75169;SDS011;63749;49.186;9.222;2023-02-02T03:47:43;11.43;;;3.30;;
75169;SDS011;63749;49.186;9.222;2023-02-02T03:50:09;18.63;;;4.33;;
75169;SDS011;63749;49.186;9.222;2023-02-02T03:52:34;14.90;;;3.80;;
75169;SDS011;63749;49.186;9.222;2023-02-02T03:55:00;12.90;;;4.10;;
75169;SDS011;63749;49.186;9.222;2023-02-02T03:57:25;15.50;;;4.15;;
75169;SDS011;63749;49.186;9.222;2023-02-02T03:59:50;13.67;;;3.70;;
75169;SDS011;63749;49.186;9.222;2023-02-02T04:02:16;14.30;;;4.17;;
75169;SDS011;63749;49.186;9.222;2023-02-02T04:04:41;17.00;;;3.90;;
75169;SDS011;63749;49.186;9.222;2023-02-02T04:07:07;16.87;;;4.50;;
75169;SDS011;63749;49.186;9.222;2023-02-02T04:09:32;15.53;;;5.07;;
75169;SDS011;63749;49.186;9.222;2023-02-02T04:11:58;21.52;;;4.93;;
75169;SDS011;63749;49.186;9.222;2023-02-02T04:14:23;18.43;;;4.37;;
75169;SDS011;63749;49.186;9.222;2023-02-02T04:16:48;17.43;;;4.63;;
75169;SDS011;63749;49.186;9.222;2023-02-02T04:19:14;17.60;;;4.85;;
75169;SDS011;63749;49.186;9.222;2023-02-02T04:21:39;14.27;;;4.70;;
75169;SDS011;63749;49.186;9.222;2023-02-02T04:24:05;16.20;;;4.70;;
75169;SDS011;63749;49.186;9.222;2023-02-02T04:26:34;15.68;;;4.18;;
75169;SDS011;63749;49.186;9.222;2023-02-02T04:28:59;15.50;;;5.23;;
75169;SDS011;63749;49.186;9.222;2023-02-02T04:31:25;16.25;;;4.85;;
75169;SDS011;63749;49.186;9.222;2023-02-02T04:33:51;16.27;;;4.37;;
75169;SDS011;63749;49.186;9.222;2023-02-02T04:36:16;19.73;;;4.28;;
75169;SDS011;63749;49.186;9.222;2023-02-02T04:38:42;16.30;;;4.70;;
75169;SDS011;63749;49.186;9.222;2023-02-02T04:41:09;15.87;;;4.57;;
75169;SDS011;63749;49.186;9.222;2023-02-02T04:43:36;16.00;;;4.20;;
75169;SDS011;63749;49.186;9.222;2023-02-02T04:46:01;16.45;;;4.38;;
75169;SDS011;63749;49.186;9.222;2023-02-02T04:48:27;16.37;;;4.73;;
75169;SDS011;63749;49.186;9.222;2023-02-02T04:50:57;12.52;;;3.97;;
75169;SDS011;63749;49.186;9.222;2023-02-02T04:53:27;21.23;;;4.28;;
75169;SDS011;63749;49.186;9.222;2023-02-02T04:55:52;15.97;;;4.30;;
75169;SDS011;63749;49.186;9.222;2023-02-02T04:58:18;21.37;;;5.50;;
75169;SDS011;63749;49.186;9.222;2023-02-02T05:00:43;19.33;;;4.93;;
75169;SDS011;63749;49.186;9.222;2023-02-02T05:03:09;11.63;;;3.33;;
75169;SDS011;63749;49.186;9.222;2023-02-02T05:05:34;16.47;;;4.17;;
75169;SDS011;63749;49.186;9.222;2023-02-02T05:07:59;15.97;;;4.57;;
75169;SDS011;63749;49.186;9.222;2023-02-02T05:10:25;19.43;;;4.80;;
75169;SDS011;63749;49.186;9.222;2023-02-02T05:12:53;13.93;;;4.05;;
75169;SDS011;63749;49.186;9.222;2023-02-02T05:15:20;17.90;;;3.67;;
75169;SDS011;63749;49.186;9.222;2023-02-02T05:17:46;18.40;;;4.45;;
75169;SDS011;63749;49.186;9.222;2023-02-02T05:20:15;15.55;;;4.20;;
75169;SDS011;63749;49.186;9.222;2023-02-02T05:22:40;22.40;;;4.37;;
75169;SDS011;63749;49.186;9.222;2023-02-02T05:25:07;20.58;;;4.43;;
75169;SDS011;63749;49.186;9.222;2023-02-02T05:27:32;12.82;;;3.70;;
75169;SDS011;63749;49.186;9.222;2023-02-02T05:29:58;12.73;;;3.93;;
75169;SDS011;63749;49.186;9.222;2023-02-02T05:32:23;16.67;;;4.50;;
75169;SDS011;63749;49.186;9.222;2023-02-02T05:34:49;14.30;;;3.80;;
75169;SDS011;63749;49.186;9.222;2023-02-02T05:37:14;17.37;;;3.73;;
75169;SDS011;63749;49.186;9.222;2023-02-02T05:39:40;18.77;;;4.80;;
75169;SDS011;63749;49.186;9.222;2023-02-02T05:42:05;16.70;;;4.18;;
75169;SDS011;63749;49.186;9.222;2023-02-02T05:44:30;17.87;;;3.70;;
75169;SDS011;63749;49.186;9.222;2023-02-02T05:46:56;16.23;;;4.17;;
75169;SDS011;63749;49.186;9.222;2023-02-02T05:49:21;19.83;;;4.57;;
75169;SDS011;63749;49.186;9.222;2023-02-02T05:51:47;18.00;;;3.70;;
75169;SDS011;63749;49.186;9.222;2023-02-02T05:54:15;22.02;;;3.70;;
75169;SDS011;63749;49.186;9.222;2023-02-02T05:56:44;11.80;;;3.13;;
75169;SDS011;63749;49.186;9.222;2023-02-02T05:59:14;16.00;;;4.25;;
75169;SDS011;63749;49.186;9.222;2023-02-02T06:01:39;19.50;;;4.23;;
75169;SDS011;63749;49.186;9.222;2023-02-02T06:04:04;14.90;;;3.60;;
75169;SDS011;63749;49.186;9.222;2023-02-02T06:06:30;17.47;;;4.53;;
75169;SDS011;63749;49.186;9.222;2023-02-02T06:08:55;15.43;;;4.07;;
75169;SDS011;63749;49.186;9.222;2023-02-02T06:11:20;16.40;;;3.63;;
75169;SDS011;63749;49.186;9.222;2023-02-02T06:13:46;13.60;;;3.50;;
75169;SDS011;63749;49.186;9.222;2023-02-02T06:16:11;17.37;;;4.20;;
75169;SDS011;63749;49.186;9.222;2023-02-02T06:18:37;17.17;;;4.40;;
75169;SDS011;63749;49.186;9.222;2023-02-02T06:21:03;21.43;;;4.60;;
75169;SDS011;63749;49.186;9.222;2023-02-02T06:23:32;18.25;;;4.65;;
75169;SDS011;63749;49.186;9.222;2023-02-02T06:25:58;12.45;;;3.67;;
75169;SDS011;63749;49.186;9.222;2023-02-02T06:28:24;15.80;;;3.90;;
75169;SDS011;63749;49.186;9.222;2023-02-02T06:30:50;20.30;;;4.40;;
75169;SDS011;63749;49.186;9.222;2023-02-02T06:33:15;16.20;;;4.40;;
75169;SDS011;63749;49.186;9.222;2023-02-02T06:35:41;21.02;;;4.50;;
75169;SDS011;63749;49.186;9.222;2023-02-02T06:38:06;18.10;;;4.93;;
75169;SDS011;63749;49.186;9.222;2023-02-02T06:40:31;19.30;;;5.37;;
75169;SDS011;63749;49.186;9.222;2023-02-02T06:42:59;16.73;;;5.00;;
75169;SDS011;63749;49.186;9.222;2023-02-02T06:45:27;14.50;;;5.18;;
75169;SDS011;63749;49.186;9.222;2023-02-02T06:47:56;19.15;;;5.15;;
75169;SDS011;63749;49.186;9.222;2023-02-02T06:50:22;17.48;;;4.57;;
75169;SDS011;63749;49.186;9.222;2023-02-02T06:52:51;19.87;;;4.60;;
75169;SDS011;63749;49.186;9.222;2023-02-02T06:55:17;18.73;;;4.60;;
75169;SDS011;63749;49.186;9.222;2023-02-02T06:57:42;20.80;;;5.27;;
75169;SDS011;63749;49.186;9.222;2023-02-02T07:00:08;17.93;;;4.70;;
75169;SDS011;63749;49.186;9.222;2023-02-02T07:02:34;12.80;;;4.32;;
75169;SDS011;63749;49.186;9.222;2023-02-02T07:05:00;14.93;;;4.40;;
75169;SDS011;63749;49.186;9.222;2023-02-02T07:07:25;15.43;;;4.15;;
75169;SDS011;63749;49.186;9.222;2023-02-02T07:09:51;20.87;;;4.73;;
75169;SDS011;63749;49.186;9.222;2023-02-02T07:12:16;18.53;;;4.30;;
75169;SDS011;63749;49.186;9.222;2023-02-02T07:14:43;17.35;;;4.05;;
75169;SDS011;63749;49.186;9.222;2023-02-02T07:17:10;18.08;;;4.95;;
75169;SDS011;63749;49.186;9.222;2023-02-02T07:19:35;13.02;;;4.20;;
75169;SDS011;63749;49.186;9.222;2023-02-02T07:22:00;17.67;;;4.53;;
75169;SDS011;63749;49.186;9.222;2023-02-02T07:24:26;15.87;;;4.37;;
75169;SDS011;63749;49.186;9.222;2023-02-02T07:26:51;17.80;;;4.97;;
75169;SDS011;63749;49.186;9.222;2023-02-02T07:29:17;18.10;;;4.60;;
75169;SDS011;63749;49.186;9.222;2023-02-02T07:31:42;16.88;;;4.50;;
75169;SDS011;63749;49.186;9.222;2023-02-02T07:34:07;20.33;;;5.60;;
75169;SDS011;63749;49.186;9.222;2023-02-02T07:36:33;13.13;;;4.20;;
75169;SDS011;63749;49.186;9.222;2023-02-02T07:38:58;20.97;;;5.00;;
75169;SDS011;63749;49.186;9.222;2023-02-02T07:41:27;17.35;;;5.57;;
75169;SDS011;63749;49.186;9.222;2023-02-02T07:43:53;15.70;;;4.65;;
75169;SDS011;63749;49.186;9.222;2023-02-02T07:46:19;20.03;;;5.10;;
75169;SDS011;63749;49.186;9.222;2023-02-02T07:48:44;18.37;;;4.60;;
75169;SDS011;63749;49.186;9.222;2023-02-02T07:51:11;20.40;;;4.50;;
75169;SDS011;63749;49.186;9.222;2023-02-02T07:53:37;17.02;;;5.43;;
75169;SDS011;63749;49.186;9.222;2023-02-02T07:56:07;18.20;;;4.57;;
75169;SDS011;63749;49.186;9.222;2023-02-02T07:58:36;14.85;;;4.15;;
75169;SDS011;63749;49.186;9.222;2023-02-02T08:01:02;22.07;;;4.60;;
75169;SDS011;63749;49.186;9.222;2023-02-02T08:03:28;17.52;;;4.72;;
75169;SDS011;63749;49.186;9.222;2023-02-02T08:05:54;17.87;;;5.23;;
75169;SDS011;63749;49.186;9.222;2023-02-02T08:08:20;16.25;;;4.78;;
75169;SDS011;63749;49.186;9.222;2023-02-02T08:10:46;21.33;;;6.03;;
75169;SDS011;63749;49.186;9.222;2023-02-02T08:13:12;17.50;;;4.45;;
75169;SDS011;63749;49.186;9.222;2023-02-02T08:15:38;17.20;;;5.00;;
75169;SDS011;63749;49.186;9.222;2023-02-02T08:18:03;12.50;;;4.17;;
75169;SDS011;63749;49.186;9.222;2023-02-02T08:20:28;16.87;;;4.23;;
75169;SDS011;63749;49.186;9.222;2023-02-02T08:22:55;18.60;;;5.30;;
75169;SDS011;63749;49.186;9.222;2023-02-02T08:25:20;17.98;;;5.72;;
75169;SDS011;63749;49.186;9.222;2023-02-02T08:27:45;19.93;;;5.20;;
75169;SDS011;63749;49.186;9.222;2023-02-02T08:30:11;17.80;;;5.77;;
75169;SDS011;63749;49.186;9.222;2023-02-02T08:32:37;19.85;;;6.22;;
75169;SDS011;63749;49.186;9.222;2023-02-02T08:35:02;22.87;;;6.77;;
75169;SDS011;63749;49.186;9.222;2023-02-02T08:37:28;21.35;;;5.82;;
75169;SDS011;63749;49.186;9.222;2023-02-02T08:39:53;20.70;;;6.57;;
75169;SDS011;63749;49.186;9.222;2023-02-02T08:42:19;19.17;;;5.40;;
75169;SDS011;63749;49.186;9.222;2023-02-02T08:44:44;19.20;;;5.07;;
75169;SDS011;63749;49.186;9.222;2023-02-02T08:47:09;18.27;;;5.37;;
75169;SDS011;63749;49.186;9.222;2023-02-02T08:49:35;15.37;;;4.13;;
75169;SDS011;63749;49.186;9.222;2023-02-02T08:52:00;19.57;;;5.60;;
75169;SDS011;63749;49.186;9.222;2023-02-02T08:54:25;16.47;;;5.40;;
75169;SDS011;63749;49.186;9.222;2023-02-02T08:56:51;17.85;;;5.80;;
75169;SDS011;63749;49.186;9.222;2023-02-02T08:59:16;19.00;;;5.10;;
75169;SDS011;63749;49.186;9.222;2023-02-02T09:01:41;16.00;;;5.17;;
75169;SDS011;63749;49.186;9.222;2023-02-02T09:04:07;19.67;;;5.50;;
75169;SDS011;63749;49.186;9.222;2023-02-02T09:06:38;18.38;;;5.28;;
75169;SDS011;63749;49.186;9.222;2023-02-02T09:09:06;25.08;;;5.50;;
75169;SDS011;63749;49.186;9.222;2023-02-02T09:11:33;23.33;;;5.60;;
75169;SDS011;63749;49.186;9.222;2023-02-02T09:13:59;21.33;;;5.35;;
75169;SDS011;63749;49.186;9.222;2023-02-02T09:16:30;15.30;;;5.53;;
75169;SDS011;63749;49.186;9.222;2023-02-02T09:18:56;15.43;;;4.77;;
75169;SDS011;63749;49.186;9.222;2023-02-02T09:21:21;19.30;;;6.00;;
75169;SDS011;63749;49.186;9.222;2023-02-02T09:23:48;23.05;;;5.13;;
75169;SDS011;63749;49.186;9.222;2023-02-02T09:28:43;13.50;;;4.70;;
75169;SDS011;63749;49.186;9.222;2023-02-02T09:31:10;18.15;;;4.55;;
75169;SDS011;63749;49.186;9.222;2023-02-02T09:33:35;18.80;;;5.53;;
75169;SDS011;63749;49.186;9.222;2023-02-02T09:36:02;19.58;;;4.88;;
75169;SDS011;63749;49.186;9.222;2023-02-02T09:38:35;17.60;;;5.57;;
75169;SDS011;63749;49.186;9.222;2023-02-02T09:41:01;19.23;;;5.55;;
75169;SDS011;63749;49.186;9.222;2023-02-02T09:46:51;15.20;;;4.45;;
75169;SDS011;63749;49.186;9.222;2023-02-02T09:52:45;17.10;;;4.60;;
75169;SDS011;63749;49.186;9.222;2023-02-02T09:55:17;16.90;;;4.85;;
75169;SDS011;63749;49.186;9.222;2023-02-02T09:57:54;16.70;;;4.40;;
75169;SDS011;63749;49.186;9.222;2023-02-02T10:00:36;13.32;;;4.53;;
75169;SDS011;63749;49.186;9.222;2023-02-02T10:03:09;14.60;;;4.68;;
75169;SDS011;63749;49.186;9.222;2023-02-02T10:08:20;15.85;;;4.63;;
75169;SDS011;63749;49.186;9.222;2023-02-02T10:10:52;14.00;;;4.20;;
75169;SDS011;63749;49.186;9.222;2023-02-02T10:13:25;14.38;;;4.32;;
75169;SDS011;63749;49.186;9.222;2023-02-02T10:18:37;17.23;;;4.70;;
75169;SDS011;63749;49.186;9.222;2023-02-02T10:24:04;17.73;;;4.90;;
75169;SDS011;63749;49.186;9.222;2023-02-02T10:26:37;13.93;;;4.25;;
75169;SDS011;63749;49.186;9.222;2023-02-02T10:29:11;17.33;;;4.40;;
75169;SDS011;63749;49.186;9.222;2023-02-02T10:34:37;19.27;;;4.05;;
75169;SDS011;63749;49.186;9.222;2023-02-02T10:44:00;13.25;;;3.70;;
75169;SDS011;63749;49.186;9.222;2023-02-02T10:49:31;15.13;;;4.28;;
75169;SDS011;63749;49.186;9.222;2023-02-02T10:57:55;18.02;;;4.30;;
75169;SDS011;63749;49.186;9.222;2023-02-02T11:03:10;12.05;;;3.72;;
75169;SDS011;63749;49.186;9.222;2023-02-02T11:05:37;15.15;;;4.10;;
75169;SDS011;63749;49.186;9.222;2023-02-02T11:08:30;10.82;;;4.38;;
75169;SDS011;63749;49.186;9.222;2023-02-02T11:10:59;11.35;;;3.65;;
75169;SDS011;63749;49.186;9.222;2023-02-02T11:13:50;15.47;;;4.83;;
75169;SDS011;63749;49.186;9.222;2023-02-02T11:16:25;16.67;;;4.38;;
75169;SDS011;63749;49.186;9.222;2023-02-02T11:18:52;10.75;;;3.50;;
75169;SDS011;63749;49.186;9.222;2023-02-02T11:26:52;11.47;;;4.67;;
75169;SDS011;63749;49.186;9.222;2023-02-02T11:29:27;17.88;;;4.82;;
75169;SDS011;63749;49.186;9.222;2023-02-02T11:31:56;16.05;;;4.05;;
75169;SDS011;63749;49.186;9.222;2023-02-02T11:34:22;17.97;;;4.53;;
75169;SDS011;63749;49.186;9.222;2023-02-02T11:36:58;14.15;;;4.28;;
75169;SDS011;63749;49.186;9.222;2023-02-02T11:39:34;13.85;;;4.80;;
75169;SDS011;63749;49.186;9.222;2023-02-02T11:42:00;14.07;;;4.70;;
75169;SDS011;63749;49.186;9.222;2023-02-02T11:44:31;16.98;;;4.53;;
75169;SDS011;63749;49.186;9.222;2023-02-02T11:46:59;16.80;;;4.70;;
75169;SDS011;63749;49.186;9.222;2023-02-02T11:49:28;19.73;;;4.70;;
75169;SDS011;63749;49.186;9.222;2023-02-02T11:51:57;15.90;;;4.93;;
75169;SDS011;63749;49.186;9.222;2023-02-02T11:54:26;15.52;;;4.25;;
75169;SDS011;63749;49.186;9.222;2023-02-02T11:56:55;20.90;;;4.53;;
75169;SDS011;63749;49.186;9.222;2023-02-02T12:04:37;16.27;;;4.40;;
75169;SDS011;63749;49.186;9.222;2023-02-02T12:07:36;14.13;;;4.60;;
75169;SDS011;63749;49.186;9.222;2023-02-02T12:10:00;11.90;;;3.78;;
75169;SDS011;63749;49.186;9.222;2023-02-02T12:18:12;17.23;;;4.07;;
75169;SDS011;63749;49.186;9.222;2023-02-02T12:26:34;12.68;;;4.10;;
75169;SDS011;63749;49.186;9.222;2023-02-02T12:29:09;47.25;;;4.43;;
75169;SDS011;63749;49.186;9.222;2023-02-02T12:43:40;15.60;;;3.83;;
75169;SDS011;63749;49.186;9.222;2023-02-02T13:04:53;12.93;;;3.67;;
75169;SDS011;63749;49.186;9.222;2023-02-02T13:07:38;10.90;;;3.15;;
75169;SDS011;63749;49.186;9.222;2023-02-02T13:10:11;14.77;;;3.70;;
75169;SDS011;63749;49.186;9.222;2023-02-02T13:12:57;8.10;;;3.20;;
75169;SDS011;63749;49.186;9.222;2023-02-02T13:15:38;10.32;;;3.30;;
75169;SDS011;63749;49.186;9.222;2023-02-02T13:18:09;12.57;;;3.30;;
75169;SDS011;63749;49.186;9.222;2023-02-02T13:20:48;11.02;;;3.00;;
75169;SDS011;63749;49.186;9.222;2023-02-02T13:23:20;10.75;;;2.83;;
75169;SDS011;63749;49.186;9.222;2023-02-02T13:26:11;12.03;;;3.00;;
75169;SDS011;63749;49.186;9.222;2023-02-02T13:31:38;13.70;;;2.67;;
75169;SDS011;63749;49.186;9.222;2023-02-02T13:34:26;15.75;;;2.88;;
75169;SDS011;63749;49.186;9.222;2023-02-02T13:40:03;10.67;;;2.93;;
75169;SDS011;63749;49.186;9.222;2023-02-02T13:42:43;10.45;;;3.10;;
75169;SDS011;63749;49.186;9.222;2023-02-02T13:45:29;15.23;;;3.58;;
75169;SDS011;63749;49.186;9.222;2023-02-02T13:48:04;9.27;;;3.25;;
75169;SDS011;63749;49.186;9.222;2023-02-02T13:56:29;13.43;;;3.10;;
75169;SDS011;63749;49.186;9.222;2023-02-02T14:01:58;11.73;;;3.17;;
75169;SDS011;63749;49.186;9.222;2023-02-02T14:04:25;11.95;;;3.00;;
75169;SDS011;63749;49.186;9.222;2023-02-02T14:09:29;15.90;;;3.50;;
75169;SDS011;63749;49.186;9.222;2023-02-02T14:11:58;11.35;;;3.38;;
75169;SDS011;63749;49.186;9.222;2023-02-02T14:14:26;11.88;;;3.30;;
75169;SDS011;63749;49.186;9.222;2023-02-02T14:17:00;11.90;;;3.00;;
75169;SDS011;63749;49.186;9.222;2023-02-02T14:22:03;14.68;;;3.47;;
75169;SDS011;63749;49.186;9.222;2023-02-02T14:34:49;12.43;;;3.53;;
75169;SDS011;63749;49.186;9.222;2023-02-02T14:45:44;11.05;;;3.20;;
75169;SDS011;63749;49.186;9.222;2023-02-02T14:48:15;11.07;;;3.00;;
75169;SDS011;63749;49.186;9.222;2023-02-02T14:50:45;12.50;;;3.35;;
75169;SDS011;63749;49.186;9.222;2023-02-02T14:53:20;14.60;;;3.13;;
75169;SDS011;63749;49.186;9.222;2023-02-02T14:56:03;12.85;;;3.40;;
75169;SDS011;63749;49.186;9.222;2023-02-02T15:06:23;11.00;;;3.03;;
75169;SDS011;63749;49.186;9.222;2023-02-02T15:12:29;13.15;;;2.95;;
75169;SDS011;63749;49.186;9.222;2023-02-02T15:22:40;8.60;;;2.67;;
75169;SDS011;63749;49.186;9.222;2023-02-02T15:25:20;11.70;;;2.58;;
75169;SDS011;63749;49.186;9.222;2023-02-02T15:27:50;8.10;;;1.83;;
75169;SDS011;63749;49.186;9.222;2023-02-02T15:30:21;9.02;;;2.60;;
75169;SDS011;63749;49.186;9.222;2023-02-02T15:32:48;11.23;;;2.30;;
75169;SDS011;63749;49.186;9.222;2023-02-02T15:35:19;11.35;;;2.63;;
75169;SDS011;63749;49.186;9.222;2023-02-02T15:37:50;8.68;;;2.38;;
75169;SDS011;63749;49.186;9.222;2023-02-02T15:40:22;8.53;;;2.40;;
75169;SDS011;63749;49.186;9.222;2023-02-02T15:42:51;7.43;;;1.90;;
75169;SDS011;63749;49.186;9.222;2023-02-02T15:47:52;8.77;;;2.45;;
75169;SDS011;63749;49.186;9.222;2023-02-02T15:50:18;15.00;;;2.72;;
75169;SDS011;63749;49.186;9.222;2023-02-02T15:52:48;7.27;;;2.30;;
75169;SDS011;63749;49.186;9.222;2023-02-02T15:55:22;10.00;;;2.30;;
75169;SDS011;63749;49.186;9.222;2023-02-02T15:57:54;8.25;;;2.10;;
75169;SDS011;63749;49.186;9.222;2023-02-02T16:00:24;9.63;;;2.10;;
75169;SDS011;63749;49.186;9.222;2023-02-02T16:02:56;10.60;;;2.30;;
75169;SDS011;63749;49.186;9.222;2023-02-02T16:05:23;8.10;;;2.40;;
75169;SDS011;63749;49.186;9.222;2023-02-02T16:07:49;10.82;;;2.70;;
75169;SDS011;63749;49.186;9.222;2023-02-02T16:10:17;8.43;;;2.03;;
75169;SDS011;63749;49.186;9.222;2023-02-02T16:12:44;8.82;;;2.30;;
75169;SDS011;63749;49.186;9.222;2023-02-02T16:15:15;8.40;;;2.37;;
75169;SDS011;63749;49.186;9.222;2023-02-02T16:17:44;7.15;;;2.30;;
75169;SDS011;63749;49.186;9.222;2023-02-02T16:20:10;9.33;;;2.40;;
75169;SDS011;63749;49.186;9.222;2023-02-02T16:22:38;9.77;;;1.88;;
75169;SDS011;63749;49.186;9.222;2023-02-02T16:25:05;8.52;;;2.30;;
75169;SDS011;63749;49.186;9.222;2023-02-02T16:27:33;11.32;;;3.00;;
75169;SDS011;63749;49.186;9.222;2023-02-02T16:30:03;9.57;;;3.00;;
75169;SDS011;63749;49.186;9.222;2023-02-02T16:32:31;11.03;;;2.40;;
75169;SDS011;63749;49.186;9.222;2023-02-02T16:34:57;11.75;;;3.10;;
75169;SDS011;63749;49.186;9.222;2023-02-02T16:37:27;7.13;;;2.30;;
75169;SDS011;63749;49.186;9.222;2023-02-02T16:43:14;6.00;;;1.98;;
75169;SDS011;63749;49.186;9.222;2023-02-02T16:45:48;8.40;;;2.70;;
75169;SDS011;63749;49.186;9.222;2023-02-02T16:53:28;11.00;;;3.22;;
75169;SDS011;63749;49.186;9.222;2023-02-02T16:55:54;7.77;;;2.43;;
75169;SDS011;63749;49.186;9.222;2023-02-02T16:58:21;9.70;;;3.08;;
75169;SDS011;63749;49.186;9.222;2023-02-02T17:01:01;8.00;;;2.58;;
75169;SDS011;63749;49.186;9.222;2023-02-02T17:03:32;8.10;;;2.63;;
75169;SDS011;63749;49.186;9.222;2023-02-02T17:05:59;6.93;;;2.90;;
75169;SDS011;63749;49.186;9.222;2023-02-02T17:08:31;8.88;;;2.50;;
75169;SDS011;63749;49.186;9.222;2023-02-02T17:13:33;11.60;;;3.80;;
75169;SDS011;63749;49.186;9.222;2023-02-02T17:16:00;10.13;;;3.87;;
75169;SDS011;63749;49.186;9.222;2023-02-02T17:18:26;10.35;;;3.60;;
75169;SDS011;63749;49.186;9.222;2023-02-02T17:20:53;8.70;;;2.83;;
75169;SDS011;63749;49.186;9.222;2023-02-02T17:23:22;7.70;;;2.33;;
75169;SDS011;63749;49.186;9.222;2023-02-02T17:25:50;6.63;;;2.33;;
75169;SDS011;63749;49.186;9.222;2023-02-02T17:28:17;5.32;;;2.00;;
75169;SDS011;63749;49.186;9.222;2023-02-02T17:30:45;6.88;;;1.75;;
75169;SDS011;63749;49.186;9.222;2023-02-02T17:33:16;5.30;;;1.90;;
75169;SDS011;63749;49.186;9.222;2023-02-02T17:35:43;6.75;;;2.10;;
75169;SDS011;63749;49.186;9.222;2023-02-02T17:38:10;7.38;;;2.05;;
75169;SDS011;63749;49.186;9.222;2023-02-02T17:40:35;10.73;;;4.07;;
75169;SDS011;63749;49.186;9.222;2023-02-02T17:43:01;8.70;;;1.90;;
75169;SDS011;63749;49.186;9.222;2023-02-02T17:45:30;6.43;;;1.90;;
75169;SDS011;63749;49.186;9.222;2023-02-02T17:47:57;6.75;;;1.83;;
75169;SDS011;63749;49.186;9.222;2023-02-02T17:50:24;4.75;;;1.67;;
75169;SDS011;63749;49.186;9.222;2023-02-02T17:52:50;5.75;;;2.03;;
75169;SDS011;63749;49.186;9.222;2023-02-02T17:57:47;6.68;;;2.00;;
75169;SDS011;63749;49.186;9.222;2023-02-02T18:00:13;6.88;;;2.30;;